Time;durP1;ratioP1;P1;durP2;ratioP2;P2;SDS_P1;SDS_P2;PMS_P1;PMS_P2;Temp;Humidity;BMP_temperature;BMP_pressure;BME280_temperature;BME280_humidity;BME280_pressure;Samples;Min_cycle;Max_cycle;Signal;HPM_P1;HPM_P2
2023/09/14 09:24:41;;;;;;;7.97;5.00;;;;;;;;;;5044399;28;20594;-50
2023/09/14 09:27:26;;;;;;;7.50;5.10;;;;;;;;;;5030518;28;20222;-52
2023/09/14 09:29:52;;;;;;;10.30;4.88;;;;;;;;;;5021804;28;20179;-50
2023/09/14 09:32:21;;;;;;;4.57;4.15;;;;;;;;;;5012163;28;20176;-51
2023/09/14 09:34:47;;;;;;;5.05;4.05;;;;;;;;;;5012351;28;20180;-55
2023/09/14 09:37:14;;;;;;;4.97;3.83;;;;;;;;;;5027754;28;20181;-51
2023/09/14 09:39:41;;;;;;;5.20;3.72;;;;;;;;;;5012486;28;20177;-48
2023/09/14 09:42:10;;;;;;;5.72;4.25;;;;;;;;;;5013617;28;20263;-48
2023/09/14 09:44:37;;;;;;;5.93;4.57;;;;;;;;;;5012186;28;20218;-49
2023/09/14 09:47:03;;;;;;;8.20;4.20;;;;;;;;;;5012110;28;20255;-47
2023/09/14 09:49:30;;;;;;;5.47;4.10;;;;;;;;;;5027471;28;20211;-48
2023/09/14 09:51:57;;;;;;;6.55;4.22;;;;;;;;;;5026911;28;20268;-48
2023/09/14 09:54:24;;;;;;;7.80;4.32;;;;;;;;;;5012052;28;20231;-48
2023/09/14 09:56:55;;;;;;;5.63;3.92;;;;;;;;;;5022123;28;20258;-49
2023/09/14 09:59:25;;;;;;;5.43;3.97;;;;;;;;;;5014908;28;20255;-49
2023/09/14 10:01:51;;;;;;;6.97;3.90;;;;;;;;;;5011346;28;20223;-49
2023/09/14 10:04:17;;;;;;;5.35;3.47;;;;;;;;;;5010554;28;20213;-48
2023/09/14 10:06:54;;;;;;;3.40;2.97;;;;;;;;;;5027166;28;20511;-48
2023/09/14 10:09:20;;;;;;;7.45;3.05;;;;;;;;;;5011700;28;20176;-48
2023/09/14 10:11:46;;;;;;;2.70;2.47;;;;;;;;;;5010921;28;20227;-47
2023/09/14 10:14:13;;;;;;;7.38;3.13;;;;;;;;;;5011106;28;20491;-47
2023/09/14 10:16:43;;;;;;;6.20;2.58;;;;;;;;;;5011173;28;20185;-48
2023/09/14 10:19:09;;;;;;;5.00;2.83;;;;;;;;;;5010962;28;20181;-49
2023/09/14 10:21:36;;;;;;;3.55;2.30;;;;;;;;;;5002720;28;20193;-50
2023/09/14 10:24:05;;;;;;;2.85;2.00;;;;;;;;;;5003104;28;20211;-50
2023/09/14 10:26:32;;;;;;;4.72;2.13;;;;;;;;;;5018225;28;20180;-47
2023/09/14 10:28:58;;;;;;;2.60;1.88;;;;;;;;;;5008205;28;20195;-48
2023/09/14 10:31:25;;;;;;;2.20;1.75;;;;;;;;;;5005752;28;20192;-47
2023/09/14 10:33:51;;;;;;;3.28;2.10;;;;;;;;;;5008369;28;20180;-50
2023/09/14 10:36:17;;;;;;;5.13;2.10;;;;;;;;;;4993571;28;20185;-48
2023/09/14 10:38:43;;;;;;;2.10;1.65;;;;;;;;;;4997474;28;20327;-48
2023/09/14 10:41:11;;;;;;;3.17;1.80;;;;;;;;;;4993993;28;20177;-50
2023/09/14 10:43:38;;;;;;;2.78;1.85;;;;;;;;;;4994327;28;20296;-48
2023/09/14 10:46:06;;;;;;;2.15;1.95;;;;;;;;;;4996755;28;20245;-47
2023/09/14 10:48:33;;;;;;;2.50;2.05;;;;;;;;;;4996698;28;20185;-48
2023/09/14 10:51:00;;;;;;;3.17;1.60;;;;;;;;;;4991039;28;20192;-47
2023/09/14 10:53:26;;;;;;;3.17;2.03;;;;;;;;;;4990119;28;20260;-51
2023/09/14 10:55:52;;;;;;;1.90;1.60;;;;;;;;;;4993732;28;20182;-47
2023/09/14 10:58:18;;;;;;;1.63;1.45;;;;;;;;;;5009654;28;20191;-49
2023/09/14 11:00:44;;;;;;;2.75;1.58;;;;;;;;;;4995777;28;20181;-48
2023/09/14 11:03:10;;;;;;;1.95;1.52;;;;;;;;;;4994584;28;20684;-48
2023/09/14 11:05:40;;;;;;;1.38;1.27;;;;;;;;;;4997134;28;20211;-49
2023/09/14 11:08:07;;;;;;;1.55;1.45;;;;;;;;;;4997005;28;20216;-50
2023/09/14 11:10:37;;;;;;;3.65;1.63;;;;;;;;;;4993947;28;20181;-49
2023/09/14 11:13:21;;;;;;;1.63;1.40;;;;;;;;;;4997645;28;20184;-49
2023/09/14 11:15:57;;;;;;;2.95;1.48;;;;;;;;;;4989888;28;20207;-46
2023/09/14 11:18:51;;;;;;;1.83;1.50;;;;;;;;;;4995962;28;20179;-48
2023/09/14 11:21:32;;;;;;;2.60;1.40;;;;;;;;;;4990543;28;20193;-48
2023/09/14 11:24:08;;;;;;;1.95;1.50;;;;;;;;;;4993987;28;20680;-48
2023/09/14 11:26:39;;;;;;;1.40;1.30;;;;;;;;;;5007041;28;20208;-49
2023/09/14 11:29:05;;;;;;;2.53;1.98;;;;;;;;;;4997645;28;20228;-47
2023/09/14 11:31:35;;;;;;;2.22;1.75;;;;;;;;;;4995217;28;20259;-47
2023/09/14 11:34:05;;;;;;;3.92;1.90;;;;;;;;;;4997365;28;20199;-50
2023/09/14 11:36:32;;;;;;;2.95;1.70;;;;;;;;;;4996813;28;20191;-47
2023/09/14 11:38:59;;;;;;;1.60;1.42;;;;;;;;;;4996922;28;20178;-48
2023/09/14 11:41:40;;;;;;;1.95;1.75;;;;;;;;;;4988767;28;20204;-47
2023/09/14 11:44:06;;;;;;;3.50;2.40;;;;;;;;;;5008092;28;20291;-48
2023/09/14 11:46:33;;;;;;;2.03;1.80;;;;;;;;;;4988227;28;20189;-48
2023/09/14 11:49:00;;;;;;;3.63;2.20;;;;;;;;;;4985590;28;20631;-47
2023/09/14 11:51:27;;;;;;;2.35;2.15;;;;;;;;;;4999838;28;20418;-48
2023/09/14 11:53:56;;;;;;;2.75;2.30;;;;;;;;;;5003951;28;20190;-50
2023/09/14 11:56:22;;;;;;;3.53;2.22;;;;;;;;;;5006905;28;20213;-49
2023/09/14 11:58:48;;;;;;;2.53;2.33;;;;;;;;;;5005421;28;20210;-47
2023/09/14 12:01:14;;;;;;;3.33;2.67;;;;;;;;;;4989272;28;20611;-48
2023/09/14 12:03:40;;;;;;;3.05;2.67;;;;;;;;;;4989418;28;20216;-48
2023/09/14 12:06:06;;;;;;;7.93;3.50;;;;;;;;;;4994530;28;20196;-48
2023/09/14 12:08:32;;;;;;;12.05;4.60;;;;;;;;;;4990615;28;20188;-48
2023/09/14 12:10:58;;;;;;;9.02;4.57;;;;;;;;;;4991794;28;20185;-48
2023/09/14 12:13:24;;;;;;;14.43;4.30;;;;;;;;;;4987936;28;20189;-48
2023/09/14 12:15:59;;;;;;;14.73;4.45;;;;;;;;;;4990638;28;20277;-48
2023/09/14 12:18:37;;;;;;;9.02;3.95;;;;;;;;;;4990446;28;20280;-48
2023/09/14 12:21:04;;;;;;;8.18;3.60;;;;;;;;;;4989602;28;20566;-48
2023/09/14 12:23:32;;;;;;;8.73;3.95;;;;;;;;;;4996245;28;20250;-48
2023/09/14 12:25:58;;;;;;;11.93;3.47;;;;;;;;;;4997731;28;20177;-48
2023/09/14 12:28:27;;;;;;;7.95;4.22;;;;;;;;;;4995609;28;20192;-48
2023/09/14 12:30:53;;;;;;;5.93;4.07;;;;;;;;;;4984226;28;20181;-48
2023/09/14 12:33:19;;;;;;;11.25;3.78;;;;;;;;;;4989940;28;20259;-48
2023/09/14 12:35:47;;;;;;;4.55;3.13;;;;;;;;;;4986302;28;20288;-48
2023/09/14 12:38:13;;;;;;;7.47;3.35;;;;;;;;;;4986824;28;20193;-48
2023/09/14 12:40:39;;;;;;;6.63;3.40;;;;;;;;;;4979203;28;20182;-48
2023/09/14 12:43:06;;;;;;;5.85;3.40;;;;;;;;;;4991178;28;20489;-48
2023/09/14 12:45:35;;;;;;;6.05;4.35;;;;;;;;;;4991216;28;20181;-48
2023/09/14 12:48:03;;;;;;;6.88;3.83;;;;;;;;;;4990481;28;20173;-48
2023/09/14 12:50:30;;;;;;;6.03;3.55;;;;;;;;;;4988113;28;20174;-48
2023/09/14 12:52:57;;;;;;;5.55;3.50;;;;;;;;;;4995547;28;20185;-48
2023/09/14 12:55:25;;;;;;;7.30;4.05;;;;;;;;;;4994623;28;20184;-48
2023/09/14 12:57:52;;;;;;;5.95;3.80;;;;;;;;;;5005862;28;20275;-48
2023/09/14 13:00:23;;;;;;;6.40;4.47;;;;;;;;;;4995618;28;20188;-48
2023/09/14 13:02:49;;;;;;;6.03;4.15;;;;;;;;;;4991639;28;20825;-49
2023/09/14 13:05:16;;;;;;;7.78;4.47;;;;;;;;;;4991376;28;20454;-48
2023/09/14 13:07:48;;;;;;;5.95;4.22;;;;;;;;;;4988034;28;20189;-48
2023/09/14 13:10:18;;;;;;;5.53;4.47;;;;;;;;;;4992419;28;20185;-48
2023/09/14 13:12:53;;;;;;;6.00;4.47;;;;;;;;;;4989847;28;20197;-48
2023/09/14 13:15:23;;;;;;;5.38;4.68;;;;;;;;;;4993605;28;20181;-48
2023/09/14 13:17:50;;;;;;;4.75;3.70;;;;;;;;;;4992139;28;20208;-48
2023/09/14 13:20:16;;;;;;;5.18;4.07;;;;;;;;;;4990016;28;20220;-48
2023/09/14 13:22:42;;;;;;;4.00;3.55;;;;;;;;;;5000777;28;20219;-48
2023/09/14 13:25:08;;;;;;;5.38;4.32;;;;;;;;;;5005364;28;20193;-48
2023/09/14 13:27:35;;;;;;;6.55;4.43;;;;;;;;;;4997656;28;20372;-48
2023/09/14 13:30:01;;;;;;;5.70;4.97;;;;;;;;;;5005522;28;20187;-48
2023/09/14 13:32:28;;;;;;;7.95;5.20;;;;;;;;;;4993498;28;20181;-48
2023/09/14 13:34:54;;;;;;;5.82;5.00;;;;;;;;;;4994463;28;20600;-48
2023/09/14 13:37:20;;;;;;;4.95;4.25;;;;;;;;;;4992289;28;20200;-48
2023/09/14 13:39:46;;;;;;;6.72;5.28;;;;;;;;;;4994443;28;20193;-48
2023/09/14 13:42:12;;;;;;;6.65;5.35;;;;;;;;;;4993354;28;20430;-48
2023/09/14 13:44:38;;;;;;;5.35;4.82;;;;;;;;;;4995427;28;20208;-48
2023/09/14 13:47:04;;;;;;;7.03;4.93;;;;;;;;;;4990430;28;20189;-48
2023/09/14 13:49:30;;;;;;;6.75;5.93;;;;;;;;;;4993438;28;20224;-48
2023/09/14 13:51:56;;;;;;;5.25;4.70;;;;;;;;;;4992250;28;20212;-48
2023/09/14 13:54:21;;;;;;;6.85;5.10;;;;;;;;;;4992371;28;20189;-48
2023/09/14 13:56:47;;;;;;;6.45;5.00;;;;;;;;;;5000829;28;20205;-48
2023/09/14 13:59:13;;;;;;;5.43;4.93;;;;;;;;;;5011344;28;20207;-48
2023/09/14 14:01:39;;;;;;;9.05;6.05;;;;;;;;;;4983294;28;20470;-48
2023/09/14 14:04:05;;;;;;;7.90;5.18;;;;;;;;;;4983223;28;20216;-48
2023/09/14 14:06:31;;;;;;;5.45;4.93;;;;;;;;;;4991814;28;20181;-48
2023/09/14 14:08:57;;;;;;;6.15;5.30;;;;;;;;;;4991967;28;20185;-48
2023/09/14 14:11:23;;;;;;;5.53;4.55;;;;;;;;;;4994622;28;20438;-48
2023/09/14 14:13:49;;;;;;;5.90;4.85;;;;;;;;;;4990526;28;20464;-49
2023/09/14 14:16:15;;;;;;;5.97;5.13;;;;;;;;;;4995302;28;20192;-48
2023/09/14 14:18:41;;;;;;;5.95;4.90;;;;;;;;;;4994882;28;20635;-49
2023/09/14 14:21:07;;;;;;;7.03;5.25;;;;;;;;;;4990138;28;20588;-48
2023/09/14 14:23:33;;;;;;;5.22;4.50;;;;;;;;;;4992456;28;20267;-48
2023/09/14 14:25:59;;;;;;;4.97;4.47;;;;;;;;;;4994595;28;20200;-48
2023/09/14 14:28:27;;;;;;;5.90;5.03;;;;;;;;;;5012984;28;20189;-48
2023/09/14 14:30:52;;;;;;;5.90;5.28;;;;;;;;;;5001603;28;20576;-48
2023/09/14 14:33:18;;;;;;;6.82;5.20;;;;;;;;;;4996344;28;20185;-48
2023/09/14 14:35:44;;;;;;;4.72;4.22;;;;;;;;;;4993360;28;20584;-48
2023/09/14 14:38:10;;;;;;;5.70;4.57;;;;;;;;;;4994968;28;20181;-48
2023/09/14 14:40:36;;;;;;;5.35;4.72;;;;;;;;;;4995477;28;20292;-48
2023/09/14 14:43:02;;;;;;;5.43;4.07;;;;;;;;;;4991410;28;20259;-48
2023/09/14 14:45:28;;;;;;;4.75;4.35;;;;;;;;;;4997032;28;20170;-48
2023/09/14 14:47:54;;;;;;;6.50;4.47;;;;;;;;;;4990229;28;20181;-48
2023/09/14 14:50:21;;;;;;;5.38;4.47;;;;;;;;;;4995835;28;20192;-48
2023/09/14 14:52:47;;;;;;;4.97;3.97;;;;;;;;;;4993827;28;20204;-48
2023/09/14 14:55:13;;;;;;;5.85;4.18;;;;;;;;;;4995140;28;20593;-48
2023/09/14 14:57:39;;;;;;;4.78;3.80;;;;;;;;;;5011704;28;20189;-48
2023/09/14 15:00:06;;;;;;;5.13;3.80;;;;;;;;;;5000339;28;20188;-48
2023/09/14 15:02:32;;;;;;;5.07;4.32;;;;;;;;;;4993294;28;20201;-48
2023/09/14 15:04:58;;;;;;;4.95;3.83;;;;;;;;;;4993941;28;20197;-48
2023/09/14 15:07:24;;;;;;;4.55;3.95;;;;;;;;;;4990358;28;20568;-48
2023/09/14 15:09:50;;;;;;;5.10;4.25;;;;;;;;;;4991827;28;20243;-48
2023/09/14 15:12:16;;;;;;;5.57;4.78;;;;;;;;;;4995736;28;20584;-48
2023/09/14 15:14:42;;;;;;;5.50;3.70;;;;;;;;;;4995873;28;20204;-48
2023/09/14 15:17:08;;;;;;;6.28;4.13;;;;;;;;;;4994343;28;20200;-48
2023/09/14 15:19:33;;;;;;;6.03;4.45;;;;;;;;;;4989526;28;20564;-48
2023/09/14 15:22:00;;;;;;;6.18;4.78;;;;;;;;;;5011471;28;20266;-48
2023/09/14 15:24:26;;;;;;;5.00;3.97;;;;;;;;;;4995761;28;20219;-48
2023/09/14 15:26:52;;;;;;;4.68;4.07;;;;;;;;;;5000602;28;20360;-48
2023/09/14 15:29:18;;;;;;;7.68;4.63;;;;;;;;;;4994899;28;20600;-48
2023/09/14 15:31:44;;;;;;;4.57;4.00;;;;;;;;;;4996416;28;20636;-48
2023/09/14 15:34:10;;;;;;;4.53;4.10;;;;;;;;;;5004696;28;20184;-48
2023/09/14 15:36:36;;;;;;;5.65;4.43;;;;;;;;;;5002296;28;20244;-48
2023/09/14 15:39:03;;;;;;;4.45;3.80;;;;;;;;;;4997184;28;20189;-48
2023/09/14 15:41:29;;;;;;;3.75;3.35;;;;;;;;;;4989679;28;20177;-48
2023/09/14 15:43:55;;;;;;;4.82;3.70;;;;;;;;;;4988141;28;20240;-48
2023/09/14 15:46:21;;;;;;;4.13;3.70;;;;;;;;;;4990893;28;20204;-48
2023/09/14 15:48:48;;;;;;;3.30;3.00;;;;;;;;;;4985687;28;20177;-48
2023/09/14 15:51:17;;;;;;;4.57;4.18;;;;;;;;;;4993588;28;20192;-48
2023/09/14 15:53:43;;;;;;;3.42;3.13;;;;;;;;;;4997427;28;20260;-48
2023/09/14 15:56:10;;;;;;;4.05;3.70;;;;;;;;;;4987558;28;20869;-48
2023/09/14 15:58:36;;;;;;;4.03;3.58;;;;;;;;;;4998979;28;20185;-48
2023/09/14 16:01:02;;;;;;;5.13;3.90;;;;;;;;;;4995293;28;20188;-48
2023/09/14 16:03:28;;;;;;;5.28;4.47;;;;;;;;;;4995659;28;20571;-48
2023/09/14 16:05:56;;;;;;;3.30;3.03;;;;;;;;;;4988646;28;20196;-48
2023/09/14 16:08:22;;;;;;;3.55;3.22;;;;;;;;;;4990966;28;20203;-48
2023/09/14 16:10:48;;;;;;;3.75;3.45;;;;;;;;;;4999631;28;20267;-48
2023/09/14 16:13:14;;;;;;;3.10;2.80;;;;;;;;;;4991334;28;20192;-48
2023/09/14 16:15:43;;;;;;;3.30;3.00;;;;;;;;;;4993117;28;20200;-48
2023/09/14 16:18:09;;;;;;;3.88;3.35;;;;;;;;;;4993457;28;20267;-48
2023/09/14 16:20:35;;;;;;;3.58;3.00;;;;;;;;;;4988231;28;20336;-48
2023/09/14 16:23:01;;;;;;;5.68;3.42;;;;;;;;;;4993449;28;20209;-48
2023/09/14 16:25:27;;;;;;;3.78;3.38;;;;;;;;;;5004371;28;20571;-48
2023/09/14 16:27:53;;;;;;;6.43;3.67;;;;;;;;;;5010205;28;20185;-49
2023/09/14 16:30:19;;;;;;;4.68;3.50;;;;;;;;;;4997743;28;20170;-48
2023/09/14 16:32:45;;;;;;;6.30;3.80;;;;;;;;;;4993474;28;20184;-48
2023/09/14 16:35:11;;;;;;;6.00;3.60;;;;;;;;;;4995622;28;20204;-48
2023/09/14 16:37:37;;;;;;;4.32;3.53;;;;;;;;;;4995553;28;20445;-48
2023/09/14 16:40:04;;;;;;;3.85;3.40;;;;;;;;;;4986896;28;20521;-48
2023/09/14 16:42:30;;;;;;;5.70;3.45;;;;;;;;;;4993398;28;20177;-48
2023/09/14 16:44:56;;;;;;;4.53;3.47;;;;;;;;;;4991488;28;20439;-48
2023/09/14 16:47:22;;;;;;;3.85;3.40;;;;;;;;;;4994875;28;20189;-48
2023/09/14 16:49:48;;;;;;;4.90;3.00;;;;;;;;;;4994936;28;20252;-48
2023/09/14 16:52:14;;;;;;;6.03;3.50;;;;;;;;;;4994852;28;20491;-48
2023/09/14 16:54:40;;;;;;;4.60;3.33;;;;;;;;;;4987378;28;20185;-48
2023/09/14 16:57:06;;;;;;;4.13;3.40;;;;;;;;;;4999480;28;20244;-48
2023/09/14 16:59:36;;;;;;;5.32;3.40;;;;;;;;;;4993782;28;20177;-48
2023/09/14 17:02:04;;;;;;;3.85;3.33;;;;;;;;;;4994668;28;20188;-48
2023/09/14 17:04:30;;;;;;;6.90;3.83;;;;;;;;;;4996391;28;20222;-48
2023/09/14 17:06:56;;;;;;;5.45;3.65;;;;;;;;;;4987831;28;20426;-48
2023/09/14 17:09:22;;;;;;;5.45;3.53;;;;;;;;;;4988554;28;20557;-48
2023/09/14 17:11:48;;;;;;;4.93;3.40;;;;;;;;;;4986328;28;20195;-48
2023/09/14 17:14:16;;;;;;;6.97;3.90;;;;;;;;;;4994373;28;20188;-48
2023/09/14 17:16:43;;;;;;;5.53;3.50;;;;;;;;;;4994315;28;20215;-48
2023/09/14 17:19:09;;;;;;;6.57;3.45;;;;;;;;;;4995860;28;20533;-48
2023/09/14 17:21:35;;;;;;;5.68;3.92;;;;;;;;;;4996753;28;20196;-48
2023/09/14 17:24:04;;;;;;;4.95;3.60;;;;;;;;;;4996180;28;20587;-48
2023/09/14 17:26:31;;;;;;;4.38;3.55;;;;;;;;;;5000309;28;20564;-48
2023/09/14 17:29:04;;;;;;;5.78;3.50;;;;;;;;;;5010294;28;20182;-48
2023/09/14 17:31:30;;;;;;;6.55;4.30;;;;;;;;;;4986494;28;20218;-48
2023/09/14 17:33:57;;;;;;;5.20;3.85;;;;;;;;;;4996696;28;20527;-48
2023/09/14 17:36:23;;;;;;;4.45;3.80;;;;;;;;;;4993698;28;20579;-48
2023/09/14 17:38:49;;;;;;;6.22;3.72;;;;;;;;;;4995029;28;20449;-48
2023/09/14 17:41:15;;;;;;;4.47;3.83;;;;;;;;;;4991639;28;20181;-48
2023/09/14 17:43:42;;;;;;;5.55;3.88;;;;;;;;;;4987924;28;20220;-48
2023/09/14 17:46:09;;;;;;;8.63;3.90;;;;;;;;;;4991905;28;20243;-48
2023/09/14 17:48:36;;;;;;;10.50;4.07;;;;;;;;;;4990433;28;20196;-48
2023/09/14 17:51:03;;;;;;;4.72;3.80;;;;;;;;;;4994029;28;20178;-48
2023/09/14 17:53:29;;;;;;;3.67;3.25;;;;;;;;;;4995693;28;20192;-48
2023/09/14 17:55:55;;;;;;;4.88;3.72;;;;;;;;;;4999079;28;20184;-48
2023/09/14 17:58:21;;;;;;;6.10;3.60;;;;;;;;;;5018825;28;20188;-48
2023/09/14 18:00:47;;;;;;;6.03;3.67;;;;;;;;;;4998746;28;20280;-48
2023/09/14 18:03:14;;;;;;;5.22;3.40;;;;;;;;;;4991668;28;20221;-48
2023/09/14 18:05:46;;;;;;;4.32;3.58;;;;;;;;;;4995871;28;20191;-48
2023/09/14 18:08:12;;;;;;;4.43;3.42;;;;;;;;;;4997779;28;20181;-48
2023/09/14 18:10:39;;;;;;;3.83;3.30;;;;;;;;;;4992021;28;20186;-48
2023/09/14 18:13:05;;;;;;;5.20;3.97;;;;;;;;;;4996551;28;20189;-48
2023/09/14 18:15:31;;;;;;;4.10;3.70;;;;;;;;;;4985968;28;20644;-48
2023/09/14 18:17:57;;;;;;;3.92;3.50;;;;;;;;;;4989455;28;20185;-48
2023/09/14 18:20:23;;;;;;;6.15;3.13;;;;;;;;;;4989372;28;20545;-48
2023/09/14 18:22:49;;;;;;;3.53;3.20;;;;;;;;;;4995882;28;20805;-48
2023/09/14 18:25:16;;;;;;;3.55;3.25;;;;;;;;;;5001878;28;20268;-48
2023/09/14 18:27:42;;;;;;;4.00;3.55;;;;;;;;;;5009450;28;20180;-48
2023/09/14 18:30:09;;;;;;;3.85;3.20;;;;;;;;;;4995669;28;20181;-48
2023/09/14 18:32:37;;;;;;;6.32;3.47;;;;;;;;;;4988249;28;20256;-48
2023/09/14 18:35:04;;;;;;;4.35;3.45;;;;;;;;;;4996778;28;20169;-48
2023/09/14 18:37:30;;;;;;;3.45;3.13;;;;;;;;;;4993802;28;20197;-48
2023/09/14 18:39:56;;;;;;;3.38;3.13;;;;;;;;;;4993913;28;20208;-48
2023/09/14 18:42:22;;;;;;;3.83;3.35;;;;;;;;;;4998202;28;20177;-48
2023/09/14 18:44:48;;;;;;;4.78;3.67;;;;;;;;;;4996023;28;20216;-48
2023/09/14 18:47:14;;;;;;;5.60;3.38;;;;;;;;;;4996607;28;20181;-48
2023/09/14 18:49:41;;;;;;;3.53;3.20;;;;;;;;;;4996298;28;20185;-48
2023/09/14 18:52:07;;;;;;;3.60;3.17;;;;;;;;;;4990395;28;20499;-48
2023/09/14 18:54:33;;;;;;;4.90;3.80;;;;;;;;;;4987941;28;20197;-48
2023/09/14 18:56:59;;;;;;;4.45;3.75;;;;;;;;;;4993754;28;20185;-46
2023/09/14 18:59:25;;;;;;;4.78;3.70;;;;;;;;;;5005189;28;20177;-46
2023/09/14 19:01:52;;;;;;;5.07;3.58;;;;;;;;;;4996769;28;20185;-46
2023/09/14 19:04:19;;;;;;;4.38;3.75;;;;;;;;;;4991019;28;20251;-47
2023/09/14 19:06:45;;;;;;;4.47;3.70;;;;;;;;;;4998442;28;20188;-48
2023/09/14 19:09:11;;;;;;;6.53;3.75;;;;;;;;;;4990817;28;20177;-48
2023/09/14 19:11:38;;;;;;;3.63;3.17;;;;;;;;;;4981458;28;20616;-48
2023/09/14 19:14:04;;;;;;;6.55;3.88;;;;;;;;;;4992281;28;20288;-48
2023/09/14 19:16:31;;;;;;;5.00;3.42;;;;;;;;;;5002468;28;20197;-48
2023/09/14 19:18:58;;;;;;;3.80;3.22;;;;;;;;;;4985266;28;20212;-48
2023/09/14 19:21:24;;;;;;;3.65;3.33;;;;;;;;;;4999569;28;20228;-48
2023/09/14 19:23:50;;;;;;;3.60;3.22;;;;;;;;;;5000321;28;20205;-48
2023/09/14 19:26:16;;;;;;;4.50;3.63;;;;;;;;;;5001798;28;20271;-48
2023/09/14 19:28:42;;;;;;;5.85;3.35;;;;;;;;;;5003438;28;20232;-48
2023/09/14 19:31:15;;;;;;;4.78;3.00;;;;;;;;;;4988621;28;20188;-47
2023/09/14 19:33:40;;;;;;;3.90;3.50;;;;;;;;;;4996549;28;20184;-48
2023/09/14 19:36:06;;;;;;;3.80;3.10;;;;;;;;;;4993551;28;20197;-48
2023/09/14 19:38:32;;;;;;;6.28;3.47;;;;;;;;;;4993238;28;20192;-48
2023/09/14 19:40:58;;;;;;;3.22;2.90;;;;;;;;;;4991320;28;20484;-48
2023/09/14 19:43:25;;;;;;;5.50;3.22;;;;;;;;;;4992850;28;20239;-48
2023/09/14 19:45:51;;;;;;;5.82;3.60;;;;;;;;;;5006179;28;20185;-48
2023/09/14 19:48:18;;;;;;;4.55;3.47;;;;;;;;;;5009012;28;20181;-48
2023/09/14 19:50:44;;;;;;;5.13;3.15;;;;;;;;;;4996226;28;20178;-48
2023/09/14 19:53:10;;;;;;;4.78;3.58;;;;;;;;;;4994984;28;20439;-48
2023/09/14 19:55:36;;;;;;;3.35;3.05;;;;;;;;;;4995851;28;20193;-48
2023/09/14 19:58:03;;;;;;;3.75;3.20;;;;;;;;;;5003132;28;20188;-48
2023/09/14 20:00:30;;;;;;;4.40;3.40;;;;;;;;;;4996010;28;20181;-48
2023/09/14 20:02:56;;;;;;;5.07;3.35;;;;;;;;;;4996008;28;20557;-48
2023/09/14 20:05:21;;;;;;;6.03;3.40;;;;;;;;;;4992180;28;20193;-48
2023/09/14 20:07:47;;;;;;;12.25;3.88;;;;;;;;;;4992469;28;20192;-48
2023/09/14 20:10:13;;;;;;;6.35;3.30;;;;;;;;;;4988125;28;20169;-48
2023/09/14 20:12:39;;;;;;;5.05;3.05;;;;;;;;;;4992395;28;20235;-48
2023/09/14 20:15:06;;;;;;;3.92;3.17;;;;;;;;;;4988939;28;20284;-48
2023/09/14 20:17:33;;;;;;;5.93;3.83;;;;;;;;;;4991534;28;20188;-48
2023/09/14 20:20:01;;;;;;;3.10;2.72;;;;;;;;;;4992463;28;20185;-48
2023/09/14 20:22:27;;;;;;;3.40;3.05;;;;;;;;;;4986009;28;20178;-48
2023/09/14 20:24:55;;;;;;;5.22;3.28;;;;;;;;;;4993194;28;20224;-48
2023/09/14 20:27:21;;;;;;;4.30;3.10;;;;;;;;;;4993021;28;20271;-48
2023/09/14 20:29:47;;;;;;;4.03;3.28;;;;;;;;;;5001397;28;20458;-48
2023/09/14 20:32:13;;;;;;;3.20;2.90;;;;;;;;;;4993474;28;20181;-48
2023/09/14 20:34:39;;;;;;;4.97;2.97;;;;;;;;;;4992933;28;20552;-48
2023/09/14 20:37:06;;;;;;;4.13;3.10;;;;;;;;;;4994754;28;20446;-48
2023/09/14 20:39:32;;;;;;;4.30;3.13;;;;;;;;;;4995267;28;20456;-48
2023/09/14 20:42:00;;;;;;;3.45;3.10;;;;;;;;;;4994740;28;20203;-48
2023/09/14 20:44:26;;;;;;;5.88;3.55;;;;;;;;;;4989722;28;20204;-48
2023/09/14 20:46:52;;;;;;;3.47;3.15;;;;;;;;;;4993396;28;20185;-48
2023/09/14 20:49:20;;;;;;;4.18;3.45;;;;;;;;;;4991227;28;20177;-48
2023/09/14 20:51:46;;;;;;;3.00;2.80;;;;;;;;;;4994300;28;20211;-48
2023/09/14 20:54:13;;;;;;;3.47;3.17;;;;;;;;;;4990181;28;20589;-48
2023/09/14 20:56:39;;;;;;;3.90;3.17;;;;;;;;;;5001163;28;20195;-48
2023/09/14 20:59:05;;;;;;;6.32;3.22;;;;;;;;;;4993804;28;20181;-48
2023/09/14 21:01:31;;;;;;;3.40;2.92;;;;;;;;;;4992864;28;20185;-48
2023/09/14 21:03:57;;;;;;;4.13;3.20;;;;;;;;;;4992416;28;20223;-48
2023/09/14 21:06:23;;;;;;;3.53;3.10;;;;;;;;;;4992508;28;20170;-48
2023/09/14 21:08:50;;;;;;;3.30;3.00;;;;;;;;;;4991661;28;20192;-48
2023/09/14 21:11:16;;;;;;;5.38;3.33;;;;;;;;;;4995310;28;20703;-48
2023/09/14 21:13:42;;;;;;;5.07;3.33;;;;;;;;;;4988088;28;20557;-48
2023/09/14 21:16:08;;;;;;;3.15;2.78;;;;;;;;;;4987748;28;20217;-48
2023/09/14 21:18:35;;;;;;;3.70;2.78;;;;;;;;;;4993167;28;20193;-48
2023/09/14 21:21:01;;;;;;;3.45;3.08;;;;;;;;;;5013584;28;20176;-48
2023/09/14 21:23:27;;;;;;;3.95;2.97;;;;;;;;;;5002193;28;20228;-48
2023/09/14 21:25:54;;;;;;;3.05;2.75;;;;;;;;;;4996790;28;20188;-48
2023/09/14 21:28:20;;;;;;;3.20;2.90;;;;;;;;;;5001613;28;20184;-48
2023/09/14 21:30:46;;;;;;;3.78;3.15;;;;;;;;;;4991367;28;20192;-48
2023/09/14 21:33:12;;;;;;;2.90;2.60;;;;;;;;;;4992478;28;20482;-48
2023/09/14 21:35:38;;;;;;;5.05;2.83;;;;;;;;;;4990049;28;20272;-48
2023/09/14 21:38:05;;;;;;;3.05;2.85;;;;;;;;;;4995661;28;20516;-48
2023/09/14 21:40:32;;;;;;;4.32;2.67;;;;;;;;;;4992474;28;20238;-48
2023/09/14 21:42:58;;;;;;;2.92;2.63;;;;;;;;;;4993096;28;20184;-48
2023/09/14 21:45:24;;;;;;;3.70;3.00;;;;;;;;;;4989402;28;20605;-48
2023/09/14 21:47:50;;;;;;;3.47;3.17;;;;;;;;;;4991856;28;20212;-48
2023/09/14 21:50:16;;;;;;;3.10;2.80;;;;;;;;;;4985177;28;20224;-48
2023/09/14 21:52:43;;;;;;;2.80;2.58;;;;;;;;;;4983931;28;20274;-48
2023/09/14 21:55:09;;;;;;;3.30;3.00;;;;;;;;;;4993896;28;20182;-48
2023/09/14 21:57:35;;;;;;;3.03;2.78;;;;;;;;;;5013197;28;20230;-48
2023/09/14 22:00:12;;;;;;;3.45;2.85;;;;;;;;;;4994121;28;20189;-48
2023/09/14 22:02:38;;;;;;;2.83;2.63;;;;;;;;;;4992266;28;20188;-48
2023/09/14 22:05:05;;;;;;;3.00;2.70;;;;;;;;;;4985004;28;20206;-48
2023/09/14 22:07:31;;;;;;;2.85;2.65;;;;;;;;;;4988780;28;20272;-48
2023/09/14 22:09:57;;;;;;;2.60;2.40;;;;;;;;;;4988745;28;20263;-48
2023/09/14 22:12:24;;;;;;;3.25;2.95;;;;;;;;;;4994940;28;20184;-48
2023/09/14 22:14:50;;;;;;;3.10;2.75;;;;;;;;;;4989028;28;20604;-48
2023/09/14 22:17:16;;;;;;;3.72;2.72;;;;;;;;;;4991327;28;20300;-48
2023/09/14 22:19:42;;;;;;;3.28;2.97;;;;;;;;;;4983045;28;20300;-48
2023/09/14 22:22:08;;;;;;;2.90;2.70;;;;;;;;;;4986254;28;20271;-48
2023/09/14 22:24:34;;;;;;;2.83;2.53;;;;;;;;;;4993339;28;20270;-48
2023/09/14 22:27:00;;;;;;;3.03;2.72;;;;;;;;;;5001258;28;20650;-48
2023/09/14 22:29:26;;;;;;;2.85;2.60;;;;;;;;;;4999275;28;20259;-48
2023/09/14 22:31:52;;;;;;;2.97;2.65;;;;;;;;;;4996602;28;20303;-48
2023/09/14 22:34:18;;;;;;;3.15;2.85;;;;;;;;;;4992795;28;20453;-48
2023/09/14 22:36:44;;;;;;;2.78;2.58;;;;;;;;;;5004859;28;20271;-48
2023/09/14 22:39:09;;;;;;;2.75;2.50;;;;;;;;;;5018036;28;20611;-48
2023/09/14 22:41:37;;;;;;;3.45;2.85;;;;;;;;;;4995676;28;20269;-48
2023/09/14 22:44:04;;;;;;;2.83;2.50;;;;;;;;;;4993301;28;20201;-48
2023/09/14 22:46:30;;;;;;;2.95;2.75;;;;;;;;;;4990980;28;20267;-48
2023/09/14 22:48:57;;;;;;;4.10;2.60;;;;;;;;;;4990172;28;20213;-48
2023/09/14 22:51:23;;;;;;;3.40;2.85;;;;;;;;;;4996392;28;20479;-48
2023/09/14 22:53:49;;;;;;;3.22;2.90;;;;;;;;;;4990673;28;20288;-48
2023/09/14 22:56:15;;;;;;;3.78;3.00;;;;;;;;;;5001479;28;20604;-48
2023/09/14 22:58:51;;;;;;;3.05;2.75;;;;;;;;;;5013726;28;20579;-48
2023/09/14 23:01:17;;;;;;;3.28;2.75;;;;;;;;;;4999434;28;20191;-48
2023/09/14 23:03:43;;;;;;;3.90;3.28;;;;;;;;;;4992900;28;20201;-48
2023/09/14 23:06:12;;;;;;;3.83;3.35;;;;;;;;;;4996118;28;20196;-48
2023/09/14 23:08:38;;;;;;;3.20;2.53;;;;;;;;;;4993645;28;20268;-48
2023/09/14 23:11:05;;;;;;;2.80;2.60;;;;;;;;;;4985931;28;20225;-48
2023/09/14 23:13:31;;;;;;;2.70;2.50;;;;;;;;;;4992318;28;20201;-48
2023/09/14 23:15:57;;;;;;;2.97;2.55;;;;;;;;;;4993382;28;20208;-48
2023/09/14 23:18:23;;;;;;;2.83;2.53;;;;;;;;;;4992382;28;20188;-48
2023/09/14 23:20:51;;;;;;;2.97;2.72;;;;;;;;;;4997011;28;20185;-48
2023/09/14 23:23:18;;;;;;;4.47;2.58;;;;;;;;;;4996781;28;20487;-48
2023/09/14 23:25:43;;;;;;;4.78;2.88;;;;;;;;;;4996937;28;20188;-48
2023/09/14 23:28:10;;;;;;;2.65;2.45;;;;;;;;;;5006407;28;20641;-47
2023/09/14 23:30:36;;;;;;;2.88;2.60;;;;;;;;;;4996125;28;20192;-48
2023/09/14 23:33:02;;;;;;;5.07;2.47;;;;;;;;;;4991216;28;20557;-48
2023/09/14 23:35:28;;;;;;;3.20;2.75;;;;;;;;;;4993352;28;20236;-48
2023/09/14 23:37:55;;;;;;;4.03;2.70;;;;;;;;;;4992474;28;20189;-48
2023/09/14 23:40:34;;;;;;;2.67;2.47;;;;;;;;;;4996891;28;20177;-48
2023/09/14 23:43:00;;;;;;;2.90;2.47;;;;;;;;;;4996039;28;20452;-48
2023/09/14 23:45:27;;;;;;;2.92;2.70;;;;;;;;;;4996824;28;20227;-48
2023/09/14 23:47:54;;;;;;;2.53;2.33;;;;;;;;;;4990312;28;20177;-48
2023/09/14 23:50:21;;;;;;;3.10;2.50;;;;;;;;;;4986886;28;20236;-48
2023/09/14 23:52:47;;;;;;;3.25;2.85;;;;;;;;;;4995995;28;20433;-48
2023/09/14 23:55:16;;;;;;;3.70;2.75;;;;;;;;;;4990761;28;20251;-48
2023/09/14 23:57:42;;;;;;;2.47;2.28;;;;;;;;;;4996264;28;20188;-48
